sensor_id;sensor_type;location;lat;lon;timestamp;pressure;altitude;pressure_sealevel;temperature;humidity
8699;BME280;4386;51.236;6.742;2022-09-09T00:00:56;100423.13;;;19.21;75.06
8699;BME280;4386;51.236;6.742;2022-09-09T00:02:05;100424.97;;;19.21;75.13
8699;BME280;4386;51.236;6.742;2022-09-09T00:03:17;100421.28;;;19.22;75.09
8699;BME280;4386;51.236;6.742;2022-09-09T00:04:25;100422.28;;;19.21;75.24
8699;BME280;4386;51.236;6.742;2022-09-09T00:05:36;100424.16;;;19.20;75.28
8699;BME280;4386;51.236;6.742;2022-09-09T00:06:46;100424.16;;;19.20;75.34
8699;BME280;4386;51.236;6.742;2022-09-09T00:07:55;100429.88;;;19.17;75.04
8699;BME280;4386;51.236;6.742;2022-09-09T00:09:02;100417.47;;;19.16;75.06
8699;BME280;4386;51.236;6.742;2022-09-09T00:10:16;100431.06;;;19.15;75.02
8699;BME280;4386;51.236;6.742;2022-09-09T00:11:23;100431.28;;;19.13;75.12
8699;BME280;4386;51.236;6.742;2022-09-09T00:12:37;100435.59;;;19.14;74.78
8699;BME280;4386;51.236;6.742;2022-09-09T00:13:46;100430.22;;;19.14;74.94
8699;BME280;4386;51.236;6.742;2022-09-09T00:14:54;100429.41;;;19.14;74.87
8699;BME280;4386;51.236;6.742;2022-09-09T00:16:00;100425.22;;;19.11;74.94
8699;BME280;4386;51.236;6.742;2022-09-09T00:17:09;100424.38;;;19.11;75.04
8699;BME280;4386;51.236;6.742;2022-09-09T00:18:18;100438.84;;;19.10;74.77
8699;BME280;4386;51.236;6.742;2022-09-09T00:19:29;100423.09;;;19.07;74.86
8699;BME280;4386;51.236;6.742;2022-09-09T00:20:36;100419.75;;;19.05;75.00
8699;BME280;4386;51.236;6.742;2022-09-09T00:21:47;100417.25;;;19.03;75.02
8699;BME280;4386;51.236;6.742;2022-09-09T00:22:56;100414.72;;;19.02;74.94
8699;BME280;4386;51.236;6.742;2022-09-09T00:24:09;100412.25;;;19.00;74.78
8699;BME280;4386;51.236;6.742;2022-09-09T00:25:14;100415.94;;;18.99;75.01
8699;BME280;4386;51.236;6.742;2022-09-09T00:26:22;100407.41;;;18.96;75.20
8699;BME280;4386;51.236;6.742;2022-09-09T00:27:29;100412.78;;;18.96;75.24
8699;BME280;4386;51.236;6.742;2022-09-09T00:28:39;100416.47;;;18.95;75.36
8699;BME280;4386;51.236;6.742;2022-09-09T00:29:46;100421.84;;;18.95;75.29
8699;BME280;4386;51.236;6.742;2022-09-09T00:30:49;100416.66;;;18.93;75.16
8699;BME280;4386;51.236;6.742;2022-09-09T00:31:54;100416.66;;;18.93;75.53
8699;BME280;4386;51.236;6.742;2022-09-09T00:33:08;100415.66;;;18.94;75.72
8699;BME280;4386;51.236;6.742;2022-09-09T00:34:18;100417.97;;;18.97;75.75
8699;BME280;4386;51.236;6.742;2022-09-09T00:35:24;100412.63;;;18.97;75.65
8699;BME280;4386;51.236;6.742;2022-09-09T00:36:28;100417.97;;;18.97;75.60
8699;BME280;4386;51.236;6.742;2022-09-09T00:37:32;100419.63;;;18.98;75.50
8699;BME280;4386;51.236;6.742;2022-09-09T00:38:39;100417.63;;;19.00;75.59
8699;BME280;4386;51.236;6.742;2022-09-09T00:39:46;100423.63;;;19.02;75.94
8699;BME280;4386;51.236;6.742;2022-09-09T00:40:52;100413.53;;;19.04;75.63
8699;BME280;4386;51.236;6.742;2022-09-09T00:42:05;100415.03;;;19.07;75.67
8699;BME280;4386;51.236;6.742;2022-09-09T00:43:29;100407.63;;;19.09;75.51
8699;BME280;4386;51.236;6.742;2022-09-09T00:44:33;100414.69;;;19.10;75.73
8699;BME280;4386;51.236;6.742;2022-09-09T00:47:19;100411.63;;;19.13;75.65
8699;BME280;4386;51.236;6.742;2022-09-09T00:48:32;100412.47;;;19.13;75.74
8699;BME280;4386;51.236;6.742;2022-09-09T00:49:45;100409.09;;;19.11;75.77
8699;BME280;4386;51.236;6.742;2022-09-09T00:50:55;100406.63;;;19.10;75.97
8699;BME280;4386;51.236;6.742;2022-09-09T00:52:06;100411.16;;;19.09;75.58
8699;BME280;4386;51.236;6.742;2022-09-09T00:53:30;100410.50;;;19.07;75.81
8699;BME280;4386;51.236;6.742;2022-09-09T00:54:43;100409.00;;;19.05;76.15
8699;BME280;4386;51.236;6.742;2022-09-09T00:55:50;100413.53;;;19.04;75.90
8699;BME280;4386;51.236;6.742;2022-09-09T00:57:05;100414.56;;;19.03;76.29
8699;BME280;4386;51.236;6.742;2022-09-09T00:58:09;100413.53;;;19.04;76.18
8699;BME280;4386;51.236;6.742;2022-09-09T00:59:20;100411.88;;;19.03;76.36
8699;BME280;4386;51.236;6.742;2022-09-09T01:00:31;100409.56;;;19.00;76.16
8699;BME280;4386;51.236;6.742;2022-09-09T01:01:38;100406.41;;;18.97;76.31
8699;BME280;4386;51.236;6.742;2022-09-09T01:02:49;100413.63;;;18.96;76.27
8699;BME280;4386;51.236;6.742;2022-09-09T01:03:55;100406.75;;;18.94;76.38
8699;BME280;4386;51.236;6.742;2022-09-09T01:05:06;100412.13;;;18.94;76.57
8699;BME280;4386;51.236;6.742;2022-09-09T01:06:15;100409.63;;;18.92;76.36
8699;BME280;4386;51.236;6.742;2022-09-09T01:07:18;100409.97;;;18.89;76.56
8699;BME280;4386;51.236;6.742;2022-09-09T01:08:42;100414.88;;;18.86;76.47
8699;BME280;4386;51.236;6.742;2022-09-09T01:09:51;100409.72;;;18.84;76.56
8699;BME280;4386;51.236;6.742;2022-09-09T01:10:56;100410.72;;;18.83;76.88
8699;BME280;4386;51.236;6.742;2022-09-09T01:12:03;100410.72;;;18.83;76.93
8699;BME280;4386;51.236;6.742;2022-09-09T01:13:17;100409.88;;;18.83;76.85
8699;BME280;4386;51.236;6.742;2022-09-09T01:14:32;100408.03;;;18.83;77.03
8699;BME280;4386;51.236;6.742;2022-09-09T01:15:38;100410.72;;;18.83;77.11
8699;BME280;4386;51.236;6.742;2022-09-09T01:16:41;100402.00;;;18.81;77.10
8699;BME280;4386;51.236;6.742;2022-09-09T01:17:58;100411.06;;;18.80;77.08
8699;BME280;4386;51.236;6.742;2022-09-09T01:19:02;100405.88;;;18.79;77.07
8699;BME280;4386;51.236;6.742;2022-09-09T01:20:10;100406.06;;;18.77;77.33
8699;BME280;4386;51.236;6.742;2022-09-09T01:21:22;100409.75;;;18.76;77.35
8699;BME280;4386;51.236;6.742;2022-09-09T01:22:34;100411.59;;;18.76;77.25
8699;BME280;4386;51.236;6.742;2022-09-09T01:23:49;100397.34;;;18.75;77.46
8699;BME280;4386;51.236;6.742;2022-09-09T01:25:15;100399.38;;;18.73;77.59
8699;BME280;4386;51.236;6.742;2022-09-09T01:26:28;100402.25;;;18.71;77.71
8699;BME280;4386;51.236;6.742;2022-09-09T01:27:32;100404.94;;;18.71;77.27
8699;BME280;4386;51.236;6.742;2022-09-09T01:28:36;100401.41;;;18.71;77.39
8699;BME280;4386;51.236;6.742;2022-09-09T01:29:39;100403.44;;;18.69;77.29
8699;BME280;4386;51.236;6.742;2022-09-09T01:30:41;100407.16;;;18.68;77.56
8699;BME280;4386;51.236;6.742;2022-09-09T01:31:53;100404.63;;;18.66;77.31
8699;BME280;4386;51.236;6.742;2022-09-09T01:32:58;100402.78;;;18.67;77.45
8699;BME280;4386;51.236;6.742;2022-09-09T01:34:04;100401.94;;;18.66;77.69
8699;BME280;4386;51.236;6.742;2022-09-09T01:35:14;100400.09;;;18.67;77.83
8699;BME280;4386;51.236;6.742;2022-09-09T01:36:27;100403.63;;;18.67;77.75
8699;BME280;4386;51.236;6.742;2022-09-09T01:37:31;100403.63;;;18.67;77.60
8699;BME280;4386;51.236;6.742;2022-09-09T01:38:34;100405.47;;;18.67;77.81
8699;BME280;4386;51.236;6.742;2022-09-09T01:39:40;100407.16;;;18.68;77.26
8699;BME280;4386;51.236;6.742;2022-09-09T01:40:44;100399.91;;;18.68;77.43
8699;BME280;4386;51.236;6.742;2022-09-09T01:41:48;100395.38;;;18.69;77.44
8699;BME280;4386;51.236;6.742;2022-09-09T01:42:49;100402.44;;;18.70;77.65
8699;BME280;4386;51.236;6.742;2022-09-09T01:43:53;100401.41;;;18.71;77.64
8699;BME280;4386;51.236;6.742;2022-09-09T01:44:56;100396.06;;;18.71;77.60
8699;BME280;4386;51.236;6.742;2022-09-09T01:46:00;100394.00;;;18.73;77.28
8699;BME280;4386;51.236;6.742;2022-09-09T01:47:03;100402.72;;;18.75;77.21
8699;BME280;4386;51.236;6.742;2022-09-09T01:48:06;100402.53;;;18.77;77.18
8699;BME280;4386;51.236;6.742;2022-09-09T01:49:08;100400.69;;;18.77;77.41
8699;BME280;4386;51.236;6.742;2022-09-09T01:50:13;100397.00;;;18.78;77.27
8699;BME280;4386;51.236;6.742;2022-09-09T01:51:16;100390.78;;;18.78;77.16
8699;BME280;4386;51.236;6.742;2022-09-09T01:52:19;100387.91;;;18.79;76.98
8699;BME280;4386;51.236;6.742;2022-09-09T01:53:21;100396.63;;;18.81;77.00
8699;BME280;4386;51.236;6.742;2022-09-09T01:54:25;100392.91;;;18.82;76.75
8699;BME280;4386;51.236;6.742;2022-09-09T01:55:30;100397.94;;;18.85;76.86
8699;BME280;4386;51.236;6.742;2022-09-09T01:56:41;100391.53;;;18.86;76.84
8699;BME280;4386;51.236;6.742;2022-09-09T01:57:53;100396.56;;;18.89;76.76
8699;BME280;4386;51.236;6.742;2022-09-09T01:59:09;100401.56;;;18.92;76.48
8699;BME280;4386;51.236;6.742;2022-09-09T02:00:14;100403.25;;;18.93;76.47
8699;BME280;4386;51.236;6.742;2022-09-09T02:01:22;100386.94;;;18.95;76.57
8699;BME280;4386;51.236;6.742;2022-09-09T02:02:32;100395.66;;;18.97;76.09
8699;BME280;4386;51.236;6.742;2022-09-09T02:03:40;100397.31;;;18.98;76.21
8699;BME280;4386;51.236;6.742;2022-09-09T02:04:47;100392.59;;;19.00;76.29
8699;BME280;4386;51.236;6.742;2022-09-09T02:05:57;100392.59;;;19.00;76.12
8699;BME280;4386;51.236;6.742;2022-09-09T02:07:01;100400.66;;;19.00;76.28
8699;BME280;4386;51.236;6.742;2022-09-09T02:08:06;100389.06;;;18.99;75.94
8699;BME280;4386;51.236;6.742;2022-09-09T02:09:11;100398.81;;;19.00;76.29
8699;BME280;4386;51.236;6.742;2022-09-09T02:10:18;100393.63;;;18.99;76.12
8699;BME280;4386;51.236;6.742;2022-09-09T02:11:23;100397.78;;;19.01;75.96
8699;BME280;4386;51.236;6.742;2022-09-09T02:12:27;100398.44;;;19.03;75.81
8699;BME280;4386;51.236;6.742;2022-09-09T02:13:35;100401.97;;;19.04;75.69
8699;BME280;4386;51.236;6.742;2022-09-09T02:14:41;100399.09;;;19.05;76.01
8699;BME280;4386;51.236;6.742;2022-09-09T02:15:51;100400.78;;;19.06;75.96
8699;BME280;4386;51.236;6.742;2022-09-09T02:16:57;100402.44;;;19.07;75.42
8699;BME280;4386;51.236;6.742;2022-09-09T02:18:05;100398.94;;;19.07;75.55
8699;BME280;4386;51.236;6.742;2022-09-09T02:19:11;100400.56;;;19.08;75.48
8699;BME280;4386;51.236;6.742;2022-09-09T02:20:15;100401.25;;;19.10;75.30
8699;BME280;4386;51.236;6.742;2022-09-09T02:21:18;100395.88;;;19.10;75.21
8699;BME280;4386;51.236;6.742;2022-09-09T02:22:22;100397.53;;;19.11;75.16
8699;BME280;4386;51.236;6.742;2022-09-09T02:23:27;100397.34;;;19.12;75.43
8699;BME280;4386;51.236;6.742;2022-09-09T02:24:32;100408.09;;;19.12;75.41
8699;BME280;4386;51.236;6.742;2022-09-09T02:25:36;100400.03;;;19.12;75.03
8699;BME280;4386;51.236;6.742;2022-09-09T02:26:40;100402.56;;;19.14;75.15
8699;BME280;4386;51.236;6.742;2022-09-09T02:27:49;100399.66;;;19.15;75.23
8699;BME280;4386;51.236;6.742;2022-09-09T02:28:55;100401.34;;;19.16;75.08
8699;BME280;4386;51.236;6.742;2022-09-09T02:30:00;100398.81;;;19.15;75.04
8699;BME280;4386;51.236;6.742;2022-09-09T02:31:05;100403.00;;;19.17;75.05
8699;BME280;4386;51.236;6.742;2022-09-09T02:32:11;100403.84;;;19.18;75.29
8699;BME280;4386;51.236;6.742;2022-09-09T02:33:14;100395.97;;;19.16;75.19
8699;BME280;4386;51.236;6.742;2022-09-09T02:34:18;100392.25;;;19.17;75.00
8699;BME280;4386;51.236;6.742;2022-09-09T02:35:23;100399.31;;;19.18;75.19
8699;BME280;4386;51.236;6.742;2022-09-09T02:36:31;100398.28;;;19.19;74.89
8699;BME280;4386;51.236;6.742;2022-09-09T02:37:38;100393.09;;;19.18;74.98
8699;BME280;4386;51.236;6.742;2022-09-09T02:38:45;100393.94;;;19.18;74.79
8699;BME280;4386;51.236;6.742;2022-09-09T02:39:47;100395.59;;;19.19;74.95
8699;BME280;4386;51.236;6.742;2022-09-09T02:40:50;100393.94;;;19.18;74.59
8699;BME280;4386;51.236;6.742;2022-09-09T02:41:51;100402.81;;;19.19;75.00
8699;BME280;4386;51.236;6.742;2022-09-09T02:42:54;100399.31;;;19.18;74.83
8699;BME280;4386;51.236;6.742;2022-09-09T02:43:58;100393.75;;;19.20;74.86
8699;BME280;4386;51.236;6.742;2022-09-09T02:45:00;100395.59;;;19.19;74.93
8699;BME280;4386;51.236;6.742;2022-09-09T02:46:08;100392.72;;;19.21;75.00
8699;BME280;4386;51.236;6.742;2022-09-09T02:47:25;100397.44;;;19.19;74.71
8699;BME280;4386;51.236;6.742;2022-09-09T02:48:34;100388.56;;;19.18;74.63
8699;BME280;4386;51.236;6.742;2022-09-09T02:49:47;100390.22;;;19.19;74.59
8699;BME280;4386;51.236;6.742;2022-09-09T02:50:58;100395.59;;;19.19;74.79
8699;BME280;4386;51.236;6.742;2022-09-09T02:52:07;100388.56;;;19.18;74.50
8699;BME280;4386;51.236;6.742;2022-09-09T02:53:16;100389.38;;;19.19;74.77
8699;BME280;4386;51.236;6.742;2022-09-09T02:54:24;100389.38;;;19.19;74.73
8699;BME280;4386;51.236;6.742;2022-09-09T02:55:37;100390.22;;;19.19;74.38
8699;BME280;4386;51.236;6.742;2022-09-09T02:56:43;100386.53;;;19.20;74.53
8699;BME280;4386;51.236;6.742;2022-09-09T02:57:48;100381.16;;;19.20;74.52
8699;BME280;4386;51.236;6.742;2022-09-09T02:58:51;100389.22;;;19.20;74.65
8699;BME280;4386;51.236;6.742;2022-09-09T02:59:57;100387.53;;;19.19;74.51
8699;BME280;4386;51.236;6.742;2022-09-09T03:01:00;100386.72;;;19.19;74.48
8699;BME280;4386;51.236;6.742;2022-09-09T03:02:04;100388.56;;;19.18;74.21
8699;BME280;4386;51.236;6.742;2022-09-09T03:03:07;100381.50;;;19.17;74.71
8699;BME280;4386;51.236;6.742;2022-09-09T03:04:11;100386.06;;;19.17;74.27
8699;BME280;4386;51.236;6.742;2022-09-09T03:05:12;100383.38;;;19.17;74.26
8699;BME280;4386;51.236;6.742;2022-09-09T03:06:15;100382.53;;;19.16;74.54
8699;BME280;4386;51.236;6.742;2022-09-09T03:07:18;100383.53;;;19.15;74.45
8699;BME280;4386;51.236;6.742;2022-09-09T03:08:20;100379.84;;;19.16;74.54
8699;BME280;4386;51.236;6.742;2022-09-09T03:09:23;100380.84;;;19.15;74.41
8699;BME280;4386;51.236;6.742;2022-09-09T03:10:25;100378.19;;;19.15;74.17
8699;BME280;4386;51.236;6.742;2022-09-09T03:11:27;100374.84;;;19.13;74.16
8699;BME280;4386;51.236;6.742;2022-09-09T03:12:29;100380.22;;;19.13;73.90
8699;BME280;4386;51.236;6.742;2022-09-09T03:13:35;100373.81;;;19.14;74.04
8699;BME280;4386;51.236;6.742;2022-09-09T03:14:37;100376.50;;;19.14;73.70
8699;BME280;4386;51.236;6.742;2022-09-09T03:15:41;100375.69;;;19.14;74.07
8699;BME280;4386;51.236;6.742;2022-09-09T03:16:42;100378.53;;;19.12;73.95
8699;BME280;4386;51.236;6.742;2022-09-09T03:17:45;100378.53;;;19.12;73.58
8699;BME280;4386;51.236;6.742;2022-09-09T03:18:47;100381.22;;;19.12;74.10
8699;BME280;4386;51.236;6.742;2022-09-09T03:19:50;100374.19;;;19.11;73.96
8699;BME280;4386;51.236;6.742;2022-09-09T03:20:53;100374.19;;;19.11;73.55
8699;BME280;4386;51.236;6.742;2022-09-09T03:21:56;100379.56;;;19.11;73.72
8699;BME280;4386;51.236;6.742;2022-09-09T03:22:59;100369.84;;;19.10;73.60
8699;BME280;4386;51.236;6.742;2022-09-09T03:24:02;100373.53;;;19.09;73.47
8699;BME280;4386;51.236;6.742;2022-09-09T03:25:05;100370.66;;;19.11;73.58
8699;BME280;4386;51.236;6.742;2022-09-09T03:26:08;100369.00;;;19.10;73.38
8699;BME280;4386;51.236;6.742;2022-09-09T03:27:09;100372.69;;;19.09;73.56
8699;BME280;4386;51.236;6.742;2022-09-09T03:28:12;100371.69;;;19.10;73.57
8699;BME280;4386;51.236;6.742;2022-09-09T03:29:13;100364.47;;;19.10;73.14
8699;BME280;4386;51.236;6.742;2022-09-09T03:30:16;100366.31;;;19.10;73.57
8699;BME280;4386;51.236;6.742;2022-09-09T03:31:19;100369.84;;;19.10;73.41
8699;BME280;4386;51.236;6.742;2022-09-09T03:32:22;100370.66;;;19.11;73.30
8699;BME280;4386;51.236;6.742;2022-09-09T03:33:24;100370.84;;;19.09;73.23
8699;BME280;4386;51.236;6.742;2022-09-09T03:34:27;100373.53;;;19.09;73.17
8699;BME280;4386;51.236;6.742;2022-09-09T03:35:28;100375.22;;;19.10;73.60
8699;BME280;4386;51.236;6.742;2022-09-09T03:36:32;100369.84;;;19.10;73.35
8699;BME280;4386;51.236;6.742;2022-09-09T03:37:34;100367.16;;;19.10;73.38
8699;BME280;4386;51.236;6.742;2022-09-09T03:38:36;100365.66;;;19.08;73.10
8699;BME280;4386;51.236;6.742;2022-09-09T03:39:38;100375.59;;;19.07;73.47
8699;BME280;4386;51.236;6.742;2022-09-09T03:40:48;100364.00;;;19.07;73.33
8699;BME280;4386;51.236;6.742;2022-09-09T03:41:51;100377.59;;;19.05;73.22
8699;BME280;4386;51.236;6.742;2022-09-09T03:42:53;100369.75;;;19.04;73.39
8699;BME280;4386;51.236;6.742;2022-09-09T03:43:55;100375.91;;;19.04;73.10
8699;BME280;4386;51.236;6.742;2022-09-09T03:44:57;100376.97;;;19.03;73.50
8699;BME280;4386;51.236;6.742;2022-09-09T03:46:00;100371.94;;;19.00;73.21
8699;BME280;4386;51.236;6.742;2022-09-09T03:47:03;100375.66;;;18.99;73.28
8699;BME280;4386;51.236;6.742;2022-09-09T03:48:07;100377.50;;;18.99;73.26
8699;BME280;4386;51.236;6.742;2022-09-09T03:49:13;100375.81;;;18.98;73.21
8699;BME280;4386;51.236;6.742;2022-09-09T03:50:14;100369.81;;;18.96;73.25
8699;BME280;4386;51.236;6.742;2022-09-09T03:51:17;100365.63;;;18.93;73.54
8699;BME280;4386;51.236;6.742;2022-09-09T03:52:19;100365.00;;;18.91;73.76
8699;BME280;4386;51.236;6.742;2022-09-09T03:53:24;100369.69;;;18.89;73.79
8699;BME280;4386;51.236;6.742;2022-09-09T03:54:26;100365.34;;;18.88;73.59
8699;BME280;4386;51.236;6.742;2022-09-09T03:55:29;100366.38;;;18.87;73.47
8699;BME280;4386;51.236;6.742;2022-09-09T03:56:30;100369.22;;;18.86;73.85
8699;BME280;4386;51.236;6.742;2022-09-09T03:57:33;100362.38;;;18.83;73.61
8699;BME280;4386;51.236;6.742;2022-09-09T03:58:37;100365.06;;;18.83;73.67
8699;BME280;4386;51.236;6.742;2022-09-09T03:59:40;100368.09;;;18.80;73.78
8699;BME280;4386;51.236;6.742;2022-09-09T04:00:42;100362.75;;;18.80;73.81
8699;BME280;4386;51.236;6.742;2022-09-09T04:01:46;100370.78;;;18.80;73.75
8699;BME280;4386;51.236;6.742;2022-09-09T04:02:49;100368.09;;;18.80;74.10
8699;BME280;4386;51.236;6.742;2022-09-09T04:03:55;100378.00;;;18.80;73.56
8699;BME280;4386;51.236;6.742;2022-09-09T04:04:59;100377.16;;;18.79;73.78
8699;BME280;4386;51.236;6.742;2022-09-09T04:06:03;100377.38;;;18.78;73.85
8699;BME280;4386;51.236;6.742;2022-09-09T04:07:05;100375.69;;;18.77;73.78
8699;BME280;4386;51.236;6.742;2022-09-09T04:08:08;100378.22;;;18.78;73.74
8699;BME280;4386;51.236;6.742;2022-09-09T04:09:09;100376.53;;;18.77;73.94
8699;BME280;4386;51.236;6.742;2022-09-09T04:10:12;100363.94;;;18.78;73.89
8699;BME280;4386;51.236;6.742;2022-09-09T04:11:15;100368.47;;;18.77;73.92
8699;BME280;4386;51.236;6.742;2022-09-09T04:12:17;100370.97;;;18.79;73.87
8699;BME280;4386;51.236;6.742;2022-09-09T04:13:19;100371.81;;;18.79;73.86
8699;BME280;4386;51.236;6.742;2022-09-09T04:14:22;100374.47;;;18.79;73.89
8699;BME280;4386;51.236;6.742;2022-09-09T04:15:23;100374.47;;;18.79;74.14
8699;BME280;4386;51.236;6.742;2022-09-09T04:16:26;100375.53;;;18.78;74.06
8699;BME280;4386;51.236;6.742;2022-09-09T04:17:27;100376.31;;;18.79;74.03
8699;BME280;4386;51.236;6.742;2022-09-09T04:18:32;100377.16;;;18.79;74.09
8699;BME280;4386;51.236;6.742;2022-09-09T04:19:35;100382.53;;;18.79;74.04
8699;BME280;4386;51.236;6.742;2022-09-09T04:20:38;100379.00;;;18.79;74.02
8699;BME280;4386;51.236;6.742;2022-09-09T04:21:40;100378.00;;;18.80;73.98
8699;BME280;4386;51.236;6.742;2022-09-09T04:22:43;100372.63;;;18.80;74.14
8699;BME280;4386;51.236;6.742;2022-09-09T04:23:45;100380.53;;;18.81;74.05
8699;BME280;4386;51.236;6.742;2022-09-09T04:24:47;100372.47;;;18.81;73.81
8699;BME280;4386;51.236;6.742;2022-09-09T04:25:50;100370.59;;;18.82;74.02
8699;BME280;4386;51.236;6.742;2022-09-09T04:26:54;100375.97;;;18.82;73.98
8699;BME280;4386;51.236;6.742;2022-09-09T04:27:55;100373.13;;;18.83;74.09
8699;BME280;4386;51.236;6.742;2022-09-09T04:28:58;100364.88;;;18.85;73.92
8699;BME280;4386;51.236;6.742;2022-09-09T04:30:00;100371.06;;;18.85;74.01
8699;BME280;4386;51.236;6.742;2022-09-09T04:31:06;100375.44;;;18.86;73.85
8699;BME280;4386;51.236;6.742;2022-09-09T04:32:08;100382.28;;;18.89;73.81
8699;BME280;4386;51.236;6.742;2022-09-09T04:33:12;100376.06;;;18.88;74.30
8699;BME280;4386;51.236;6.742;2022-09-09T04:34:15;100383.97;;;18.90;74.01
8699;BME280;4386;51.236;6.742;2022-09-09T04:35:17;100375.75;;;18.91;74.12
8699;BME280;4386;51.236;6.742;2022-09-09T04:36:20;100372.00;;;18.92;74.04
8699;BME280;4386;51.236;6.742;2022-09-09T04:37:22;100375.38;;;18.94;73.82
8699;BME280;4386;51.236;6.742;2022-09-09T04:38:26;100373.69;;;18.93;73.99
8699;BME280;4386;51.236;6.742;2022-09-09T04:39:28;100371.84;;;18.94;73.66
8699;BME280;4386;51.236;6.742;2022-09-09T04:40:31;100373.50;;;18.95;73.79
8699;BME280;4386;51.236;6.742;2022-09-09T04:41:34;100381.56;;;18.95;74.02
8699;BME280;4386;51.236;6.742;2022-09-09T04:42:37;100379.72;;;18.95;73.85
8699;BME280;4386;51.236;6.742;2022-09-09T04:43:39;100373.31;;;18.96;73.74
8699;BME280;4386;51.236;6.742;2022-09-09T04:44:43;100370.66;;;18.96;73.68
8699;BME280;4386;51.236;6.742;2022-09-09T04:45:47;100374.81;;;18.99;73.88
8699;BME280;4386;51.236;6.742;2022-09-09T04:46:50;100372.31;;;18.97;73.87
8699;BME280;4386;51.236;6.742;2022-09-09T04:47:52;100373.97;;;18.98;73.82
8699;BME280;4386;51.236;6.742;2022-09-09T04:48:54;100376.66;;;18.98;73.57
8699;BME280;4386;51.236;6.742;2022-09-09T04:49:58;100368.59;;;18.98;73.74
8699;BME280;4386;51.236;6.742;2022-09-09T04:51:02;100370.28;;;18.99;73.63
8699;BME280;4386;51.236;6.742;2022-09-09T04:52:05;100372.13;;;18.99;73.80
8699;BME280;4386;51.236;6.742;2022-09-09T04:53:07;100372.13;;;18.99;73.75
8699;BME280;4386;51.236;6.742;2022-09-09T04:54:10;100374.63;;;19.00;73.75
8699;BME280;4386;51.236;6.742;2022-09-09T04:55:13;100376.28;;;19.01;73.96
8699;BME280;4386;51.236;6.742;2022-09-09T04:56:16;100377.97;;;19.02;73.89
8699;BME280;4386;51.236;6.742;2022-09-09T04:57:18;100375.47;;;19.01;74.09
8699;BME280;4386;51.236;6.742;2022-09-09T04:58:21;100377.13;;;19.02;74.12
8699;BME280;4386;51.236;6.742;2022-09-09T04:59:24;100375.28;;;19.02;74.08
8699;BME280;4386;51.236;6.742;2022-09-09T05:00:26;100381.66;;;19.01;73.77
8699;BME280;4386;51.236;6.742;2022-09-09T05:01:28;100367.22;;;19.02;73.83
8699;BME280;4386;51.236;6.742;2022-09-09T05:02:30;100370.75;;;19.03;74.07
8699;BME280;4386;51.236;6.742;2022-09-09T05:03:33;100373.44;;;19.03;73.96
8699;BME280;4386;51.236;6.742;2022-09-09T05:04:36;100372.44;;;19.04;74.11
8699;BME280;4386;51.236;6.742;2022-09-09T05:05:39;100375.13;;;19.04;73.94
8699;BME280;4386;51.236;6.742;2022-09-09T05:06:41;100378.59;;;19.04;73.79
8699;BME280;4386;51.236;6.742;2022-09-09T05:07:43;100377.59;;;19.05;74.12
8699;BME280;4386;51.236;6.742;2022-09-09T05:08:46;100369.53;;;19.05;73.85
8699;BME280;4386;51.236;6.742;2022-09-09T05:09:47;100379.28;;;19.06;73.87
8699;BME280;4386;51.236;6.742;2022-09-09T05:10:50;100370.22;;;19.07;74.02
8699;BME280;4386;51.236;6.742;2022-09-09T05:11:52;100370.22;;;19.07;74.11
8699;BME280;4386;51.236;6.742;2022-09-09T05:12:54;100370.22;;;19.07;73.99
8699;BME280;4386;51.236;6.742;2022-09-09T05:13:56;100370.22;;;19.07;73.77
8699;BME280;4386;51.236;6.742;2022-09-09T05:14:59;100367.31;;;19.09;74.21
8699;BME280;4386;51.236;6.742;2022-09-09T05:16:01;100373.53;;;19.09;73.96
8699;BME280;4386;51.236;6.742;2022-09-09T05:17:03;100371.84;;;19.08;73.60
8699;BME280;4386;51.236;6.742;2022-09-09T05:18:05;100378.06;;;19.09;74.06
8699;BME280;4386;51.236;6.742;2022-09-09T05:19:08;100379.75;;;19.10;74.07
8699;BME280;4386;51.236;6.742;2022-09-09T05:20:10;100370.84;;;19.09;73.67
8699;BME280;4386;51.236;6.742;2022-09-09T05:21:20;100371.50;;;19.11;73.91
8699;BME280;4386;51.236;6.742;2022-09-09T05:22:24;100369.00;;;19.10;73.63
8699;BME280;4386;51.236;6.742;2022-09-09T05:23:25;100368.81;;;19.11;73.65
8699;BME280;4386;51.236;6.742;2022-09-09T05:24:28;100375.84;;;19.12;73.61
8699;BME280;4386;51.236;6.742;2022-09-09T05:25:34;100367.78;;;19.12;73.61
8699;BME280;4386;51.236;6.742;2022-09-09T05:26:36;100363.44;;;19.11;73.83
8699;BME280;4386;51.236;6.742;2022-09-09T05:27:38;100374.84;;;19.13;73.68
8699;BME280;4386;51.236;6.742;2022-09-09T05:28:41;100369.47;;;19.13;73.71
8699;BME280;4386;51.236;6.742;2022-09-09T05:29:42;100371.13;;;19.14;73.65
8699;BME280;4386;51.236;6.742;2022-09-09T05:30:45;100365.75;;;19.14;73.94
8699;BME280;4386;51.236;6.742;2022-09-09T05:31:47;100369.47;;;19.13;73.64
8699;BME280;4386;51.236;6.742;2022-09-09T05:32:50;100365.75;;;19.14;73.74
8699;BME280;4386;51.236;6.742;2022-09-09T05:33:51;100364.09;;;19.13;73.34
8699;BME280;4386;51.236;6.742;2022-09-09T05:34:54;100357.88;;;19.13;73.41
8699;BME280;4386;51.236;6.742;2022-09-09T05:35:58;100357.88;;;19.13;73.57
8699;BME280;4386;51.236;6.742;2022-09-09T05:37:01;100364.09;;;19.13;73.80
8699;BME280;4386;51.236;6.742;2022-09-09T05:38:06;100367.63;;;19.14;73.83
8699;BME280;4386;51.236;6.742;2022-09-09T05:39:08;100362.06;;;19.15;73.60
8699;BME280;4386;51.236;6.742;2022-09-09T05:40:13;100365.75;;;19.14;73.75
8699;BME280;4386;51.236;6.742;2022-09-09T05:41:15;100364.75;;;19.15;73.34
8699;BME280;4386;51.236;6.742;2022-09-09T05:42:18;100365.38;;;19.17;73.84
8699;BME280;4386;51.236;6.742;2022-09-09T05:43:20;100365.38;;;19.17;73.43
8699;BME280;4386;51.236;6.742;2022-09-09T05:44:23;100371.59;;;19.18;73.50
8699;BME280;4386;51.236;6.742;2022-09-09T05:45:25;100367.72;;;19.20;73.57
8699;BME280;4386;51.236;6.742;2022-09-09T05:46:27;100369.56;;;19.20;73.54
8699;BME280;4386;51.236;6.742;2022-09-09T05:47:29;100372.06;;;19.21;73.54
8699;BME280;4386;51.236;6.742;2022-09-09T05:48:33;100367.53;;;19.22;73.48
8699;BME280;4386;51.236;6.742;2022-09-09T05:49:35;100364.66;;;19.23;73.44
8699;BME280;4386;51.236;6.742;2022-09-09T05:50:38;100366.31;;;19.24;73.60
8699;BME280;4386;51.236;6.742;2022-09-09T05:51:40;100364.28;;;19.27;73.47